Time;durP1;ratioP1;P1;durP2;ratioP2;P2;SDS_P1;SDS_P2;PMS_P1;PMS_P2;Temp;Humidity;BMP_temperature;BMP_pressure;BME280_temperature;BME280_humidity;BME280_pressure;Samples;Min_cycle;Max_cycle;Signal;HPM_P1;HPM_P2
2023/12/09 00:00:11;;;;;;;1.58;1.08;;;7.70;99.90;;;;;;6182640;23;20448;-67
2023/12/09 00:02:36;;;;;;;2.08;1.05;;;7.70;99.90;;;;;;6179625;23;20787;-67
2023/12/09 00:05:03;;;;;;;1.17;0.93;;;7.70;99.90;;;;;;6182176;23;20099;-67
2023/12/09 00:07:28;;;;;;;1.55;1.45;;;7.70;99.90;;;;;;6180373;23;20348;-67
2023/12/09 00:09:54;;;;;;;2.50;0.88;;;7.70;99.90;;;;;;6180839;23;20017;-67
2023/12/09 00:12:19;;;;;;;4.90;1.23;;;7.70;99.90;;;;;;6184050;23;20099;-66
2023/12/09 00:14:45;;;;;;;1.30;0.98;;;7.70;99.90;;;;;;6210681;23;20054;-66
2023/12/09 00:17:10;;;;;;;1.45;0.60;;;7.80;99.90;;;;;;6183394;23;20080;-67
2023/12/09 00:19:36;;;;;;;2.08;1.45;;;7.80;99.90;;;;;;6179734;23;20412;-67
2023/12/09 00:22:02;;;;;;;2.25;1.48;;;7.70;99.90;;;;;;6183495;23;20048;-67
2023/12/09 00:24:27;;;;;;;1.45;1.25;;;7.80;99.90;;;;;;6180039;23;20023;-67
2023/12/09 00:26:53;;;;;;;2.00;1.90;;;7.80;99.90;;;;;;6183930;23;20024;-67
2023/12/09 00:29:18;;;;;;;6.40;2.05;;;7.80;99.90;;;;;;6184634;23;20020;-67
2023/12/09 00:31:44;;;;;;;1.02;1.00;;;7.90;99.90;;;;;;6183474;23;20151;-66
2023/12/09 00:34:09;;;;;;;1.80;1.10;;;7.80;99.90;;;;;;6182794;23;20040;-67
2023/12/09 00:36:35;;;;;;;1.45;1.35;;;7.90;99.90;;;;;;6183154;23;20013;-67
2023/12/09 00:39:01;;;;;;;3.55;1.13;;;7.90;99.90;;;;;;6183439;23;20040;-67
2023/12/09 00:41:26;;;;;;;1.90;0.93;;;7.90;99.90;;;;;;6182313;23;20479;-67
2023/12/09 00:43:52;;;;;;;10.43;1.33;;;7.80;99.90;;;;;;6183279;23;20480;-67
2023/12/09 00:46:17;;;;;;;2.13;1.50;;;7.90;99.90;;;;;;6183440;23;20556;-66
2023/12/09 00:48:44;;;;;;;4.05;0.85;;;7.90;99.90;;;;;;6184199;23;20028;-67
2023/12/09 00:51:09;;;;;;;3.15;1.15;;;7.90;99.90;;;;;;6183417;23;20032;-67
2023/12/09 00:53:35;;;;;;;1.80;1.20;;;7.90;99.90;;;;;;6210379;23;20302;-67
2023/12/09 00:56:00;;;;;;;1.77;0.77;;;7.90;99.90;;;;;;6158797;23;20123;-66
2023/12/09 00:58:26;;;;;;;4.10;1.63;;;7.90;99.90;;;;;;6208631;23;20027;-67
2023/12/09 01:00:52;;;;;;;0.50;0.50;;;7.90;99.90;;;;;;6209502;23;20491;-67
2023/12/09 01:03:18;;;;;;;9.05;1.33;;;7.90;99.90;;;;;;6182903;23;20023;-67
2023/12/09 01:05:43;;;;;;;2.80;1.05;;;7.90;99.90;;;;;;6180615;23;20016;-67
2023/12/09 01:08:09;;;;;;;1.95;1.20;;;7.90;99.90;;;;;;6183709;23;20021;-67
2023/12/09 01:10:35;;;;;;;0.88;0.88;;;7.90;99.90;;;;;;6184476;23;20340;-66
2023/12/09 01:13:00;;;;;;;2.15;1.25;;;7.90;99.90;;;;;;6182668;23;20013;-66
2023/12/09 01:15:26;;;;;;;8.85;3.90;;;7.90;99.90;;;;;;6183624;23;20005;-67
2023/12/09 01:17:51;;;;;;;0.45;0.40;;;8.00;99.90;;;;;;6183405;23;20457;-66
2023/12/09 01:20:18;;;;;;;2.25;1.38;;;7.90;99.90;;;;;;6182032;23;20016;-66
2023/12/09 01:22:44;;;;;;;3.13;1.13;;;8.00;99.90;;;;;;6183253;23;20009;-66
2023/12/09 01:25:09;;;;;;;2.47;1.50;;;7.90;99.90;;;;;;6183361;23;20387;-67
2023/12/09 01:27:35;;;;;;;1.27;0.95;;;7.90;99.90;;;;;;6211504;23;20016;-66
2023/12/09 01:30:01;;;;;;;1.67;0.93;;;7.90;99.90;;;;;;6180700;23;20400;-67
2023/12/09 01:32:26;;;;;;;4.05;2.13;;;8.00;99.90;;;;;;6182939;23;20438;-67
2023/12/09 01:34:52;;;;;;;1.35;1.25;;;8.00;99.90;;;;;;6208395;23;20100;-67
2023/12/09 01:37:17;;;;;;;0.55;0.55;;;7.90;99.90;;;;;;6183111;23;20062;-66
2023/12/09 01:39:43;;;;;;;4.35;2.35;;;8.00;99.90;;;;;;6182113;23;20020;-66
2023/12/09 01:42:09;;;;;;;1.42;1.33;;;7.90;99.90;;;;;;6182443;23;20025;-66
2023/12/09 01:44:35;;;;;;;0.98;0.93;;;7.90;99.90;;;;;;6207063;23;20542;-66
2023/12/09 01:47:01;;;;;;;2.78;1.80;;;8.00;99.90;;;;;;6184399;23;20071;-66
2023/12/09 01:49:27;;;;;;;1.67;1.58;;;8.00;99.90;;;;;;6182613;23;20024;-66
2023/12/09 01:51:52;;;;;;;3.30;2.33;;;8.00;99.90;;;;;;6184898;23;20424;-66
2023/12/09 01:54:18;;;;;;;1.48;0.65;;;7.90;99.90;;;;;;6205529;23;20005;-66
2023/12/09 01:56:44;;;;;;;2.15;1.80;;;8.00;99.90;;;;;;6184211;23;20070;-66
2023/12/09 01:59:10;;;;;;;0.70;0.70;;;8.00;99.90;;;;;;6183680;23;20012;-67
2023/12/09 02:01:35;;;;;;;2.63;1.42;;;8.00;99.90;;;;;;6182516;23;20460;-66
2023/12/09 02:04:02;;;;;;;0.82;0.80;;;8.00;99.90;;;;;;6179583;23;20020;-66
2023/12/09 02:06:28;;;;;;;1.20;0.93;;;8.00;99.90;;;;;;6183954;23;20013;-66
2023/12/09 02:08:54;;;;;;;3.55;1.67;;;8.00;99.90;;;;;;6204389;23;20453;-66
2023/12/09 02:11:38;;;;;;;5.13;1.77;;;8.00;99.90;;;;;;6181677;23;20102;-66
2023/12/09 02:14:13;;;;;;;0.90;0.90;;;8.00;99.90;;;;;;6210038;23;20012;-66
2023/12/09 02:16:46;;;;;;;2.15;0.98;;;7.90;99.90;;;;;;6207560;23;20135;-66
2023/12/09 02:19:13;;;;;;;1.73;1.17;;;8.00;99.90;;;;;;6208980;23;20340;-66
2023/12/09 02:22:02;;;;;;;0.80;0.80;;;7.90;99.90;;;;;;6183889;23;20504;-66
2023/12/09 02:24:28;;;;;;;1.65;1.48;;;7.90;99.90;;;;;;6181598;23;20044;-66
2023/12/09 02:27:02;;;;;;;0.68;0.68;;;7.80;99.90;;;;;;6211050;23;20097;-65
2023/12/09 02:29:33;;;;;;;1.27;1.23;;;7.80;99.90;;;;;;6182258;23;20040;-66
2023/12/09 02:32:03;;;;;;;1.05;1.05;;;7.70;99.90;;;;;;6183987;23;20016;-66
2023/12/09 02:34:31;;;;;;;2.78;1.35;;;7.70;99.90;;;;;;6181154;23;20012;-66
2023/12/09 02:36:57;;;;;;;2.95;1.55;;;7.70;99.90;;;;;;6210477;23;20055;-66
2023/12/09 02:39:24;;;;;;;1.48;1.38;;;7.70;99.90;;;;;;6181214;23;20026;-66
2023/12/09 02:41:50;;;;;;;1.27;1.17;;;7.70;99.90;;;;;;6208149;23;20034;-66
2023/12/09 02:44:16;;;;;;;16.77;4.28;;;7.70;99.90;;;;;;6180856;23;20507;-66
2023/12/09 02:46:42;;;;;;;0.43;0.43;;;7.70;99.90;;;;;;6183690;23;20071;-66
2023/12/09 02:49:07;;;;;;;0.55;0.55;;;7.70;99.90;;;;;;6182536;23;20146;-66
2023/12/09 02:51:33;;;;;;;2.45;1.38;;;7.70;99.90;;;;;;6183092;23;20090;-66
2023/12/09 02:53:58;;;;;;;1.63;1.52;;;7.60;99.90;;;;;;6208559;23;20036;-66
2023/12/09 02:56:24;;;;;;;1.70;1.60;;;7.60;99.90;;;;;;6183301;23;20452;-66
2023/12/09 02:58:49;;;;;;;2.05;0.77;;;7.50;99.90;;;;;;6183017;23;20020;-66
2023/12/09 03:01:15;;;;;;;1.75;1.02;;;7.50;99.90;;;;;;6184397;23;20054;-66
2023/12/09 03:03:40;;;;;;;1.23;1.13;;;7.50;99.90;;;;;;6180135;23;20020;-66
2023/12/09 03:06:06;;;;;;;1.08;0.77;;;7.50;99.90;;;;;;6181375;23;20021;-66
2023/12/09 03:08:31;;;;;;;0.43;0.40;;;7.50;99.90;;;;;;6182412;23;20024;-65
2023/12/09 03:10:57;;;;;;;1.73;1.63;;;7.50;99.90;;;;;;6184716;23;20027;-66
2023/12/09 03:13:23;;;;;;;0.57;0.57;;;7.50;99.90;;;;;;6182370;23;20083;-67
2023/12/09 03:15:49;;;;;;;0.50;0.50;;;7.50;99.90;;;;;;6208845;23;20063;-66
2023/12/09 03:18:14;;;;;;;12.40;1.45;;;7.50;99.90;;;;;;6182847;23;20009;-66
2023/12/09 03:20:40;;;;;;;1.35;1.02;;;7.50;99.90;;;;;;6183526;23;20043;-66
2023/12/09 03:23:05;;;;;;;0.50;0.50;;;7.40;99.90;;;;;;6210412;23;20017;-66
2023/12/09 03:25:32;;;;;;;0.60;0.60;;;7.40;99.90;;;;;;6181808;23;20518;-66
2023/12/09 03:27:58;;;;;;;3.10;1.27;;;7.50;99.90;;;;;;6180190;23;20012;-66
2023/12/09 03:30:23;;;;;;;0.45;0.45;;;7.50;99.90;;;;;;6184480;23;20383;-66
2023/12/09 03:32:49;;;;;;;0.93;0.88;;;7.60;99.90;;;;;;6182908;23;20486;-66
2023/12/09 03:35:14;;;;;;;2.20;0.95;;;7.60;99.90;;;;;;6181705;23;20027;-66
2023/12/09 03:37:40;;;;;;;1.60;0.85;;;7.60;99.90;;;;;;6182645;23;20020;-66
2023/12/09 03:40:06;;;;;;;0.70;0.70;;;7.60;99.90;;;;;;6181667;23;20100;-66
2023/12/09 03:42:32;;;;;;;0.45;0.45;;;7.60;99.90;;;;;;6208531;23;20514;-66
2023/12/09 03:44:57;;;;;;;0.60;0.60;;;7.60;99.90;;;;;;6208486;23;20020;-66
2023/12/09 03:47:23;;;;;;;2.72;1.10;;;7.60;99.90;;;;;;6185956;23;20028;-66
2023/12/09 03:49:48;;;;;;;2.15;0.80;;;7.60;99.90;;;;;;6183884;23;20076;-66
2023/12/09 03:52:14;;;;;;;1.45;0.95;;;7.60;99.90;;;;;;6182649;23;20305;-66
2023/12/09 03:54:39;;;;;;;1.10;0.40;;;7.60;99.90;;;;;;6209226;23;20484;-66
2023/12/09 03:57:05;;;;;;;0.52;0.52;;;7.60;99.90;;;;;;6185086;23;20095;-66
2023/12/09 03:59:30;;;;;;;3.10;1.58;;;7.60;99.90;;;;;;6182407;23;20044;-66
2023/12/09 04:01:56;;;;;;;0.88;0.88;;;7.60;99.90;;;;;;6185016;23;20098;-67
2023/12/09 04:04:22;;;;;;;4.25;0.93;;;7.60;99.90;;;;;;6183124;23;20020;-66
2023/12/09 04:06:49;;;;;;;1.23;1.13;;;7.60;99.90;;;;;;6211734;23;20012;-66
2023/12/09 04:09:16;;;;;;;0.43;0.38;;;7.60;99.90;;;;;;6212706;23;20017;-66
2023/12/09 04:11:43;;;;;;;0.60;0.60;;;7.60;99.90;;;;;;6182797;23;20012;-66
2023/12/09 04:14:08;;;;;;;1.85;1.75;;;7.60;99.90;;;;;;6211477;23;20474;-66
2023/12/09 04:16:34;;;;;;;1.13;1.10;;;7.60;99.90;;;;;;6181039;23;20021;-66
2023/12/09 04:19:00;;;;;;;0.55;0.55;;;7.60;99.90;;;;;;6213036;23;20017;-66
2023/12/09 04:21:25;;;;;;;3.97;1.83;;;7.60;99.90;;;;;;6183655;23;20237;-66
2023/12/09 04:23:51;;;;;;;4.22;1.95;;;7.60;99.90;;;;;;6210682;23;20577;-66
2023/12/09 04:26:17;;;;;;;1.00;0.85;;;7.70;99.90;;;;;;6209519;23;20012;-66
2023/12/09 04:28:42;;;;;;;4.75;1.45;;;7.70;99.90;;;;;;6183767;23;20021;-66
2023/12/09 04:31:08;;;;;;;1.25;0.90;;;7.60;99.90;;;;;;6183399;23;20099;-66
2023/12/09 04:33:34;;;;;;;1.38;0.90;;;7.70;99.90;;;;;;6183957;23;20044;-66
2023/12/09 04:35:59;;;;;;;0.55;0.55;;;7.60;99.90;;;;;;6181823;23;20019;-66
2023/12/09 04:38:25;;;;;;;4.13;1.65;;;7.60;99.90;;;;;;6212204;23;20049;-66
2023/12/09 04:40:51;;;;;;;0.30;0.30;;;7.60;99.90;;;;;;6207935;23;20265;-66
2023/12/09 04:43:17;;;;;;;2.80;1.45;;;7.60;99.90;;;;;;6208831;23;20115;-66
2023/12/09 04:45:43;;;;;;;0.98;0.90;;;7.70;99.90;;;;;;6179336;23;20066;-66
2023/12/09 04:48:08;;;;;;;1.30;0.60;;;7.60;99.90;;;;;;6182238;23;20055;-66
2023/12/09 04:50:34;;;;;;;4.18;1.00;;;7.60;99.90;;;;;;6184212;23;20026;-66
2023/12/09 04:52:59;;;;;;;3.33;1.27;;;7.60;99.90;;;;;;6182623;23;20456;-66
2023/12/09 04:55:26;;;;;;;0.82;0.68;;;7.60;99.90;;;;;;6182895;23;20067;-66
2023/12/09 04:57:51;;;;;;;0.70;0.70;;;7.60;99.90;;;;;;6181949;23;20012;-66
2023/12/09 05:00:17;;;;;;;0.40;0.40;;;7.60;99.90;;;;;;6183949;23;20020;-66
2023/12/09 05:02:43;;;;;;;2.83;2.47;;;7.60;99.90;;;;;;6185294;23;20036;-66
2023/12/09 05:05:08;;;;;;;4.13;0.30;;;7.60;99.90;;;;;;6207193;23;20017;-66
2023/12/09 05:07:34;;;;;;;0.63;0.40;;;7.60;99.90;;;;;;6183853;23;20016;-66
2023/12/09 05:09:59;;;;;;;1.27;1.13;;;7.60;99.90;;;;;;6210636;23;20012;-66
2023/12/09 05:12:26;;;;;;;6.72;1.40;;;7.60;99.90;;;;;;6182820;23;20016;-66
2023/12/09 05:14:52;;;;;;;3.40;0.45;;;7.60;99.90;;;;;;6208104;23;20058;-66
2023/12/09 05:17:17;;;;;;;2.20;1.73;;;7.60;99.90;;;;;;6211229;23;20017;-66
2023/12/09 05:19:43;;;;;;;0.57;0.57;;;7.60;99.90;;;;;;6183554;23;20020;-66
2023/12/09 05:22:08;;;;;;;1.58;1.33;;;7.60;99.90;;;;;;6208137;23;20114;-66
2023/12/09 05:24:34;;;;;;;1.30;1.30;;;7.50;99.90;;;;;;6182801;23;20531;-66
2023/12/09 05:27:00;;;;;;;1.20;0.82;;;7.50;99.90;;;;;;6182180;23;20096;-66
2023/12/09 05:29:26;;;;;;;1.40;0.63;;;7.50;99.90;;;;;;6179717;23;20048;-66
2023/12/09 05:31:51;;;;;;;2.33;0.75;;;7.50;99.90;;;;;;6210839;23;20016;-67
2023/12/09 05:34:17;;;;;;;3.45;1.83;;;7.50;99.90;;;;;;6182296;23;20091;-66
2023/12/09 05:36:42;;;;;;;2.20;0.75;;;7.50;99.90;;;;;;6182165;23;20214;-66
2023/12/09 05:39:08;;;;;;;1.08;0.43;;;7.50;99.90;;;;;;6183229;23;20343;-66
2023/12/09 05:41:33;;;;;;;1.20;1.17;;;7.50;99.90;;;;;;6211433;23;20344;-66
2023/12/09 05:43:59;;;;;;;0.60;0.50;;;7.50;99.90;;;;;;6183994;23;20348;-66
2023/12/09 05:46:24;;;;;;;0.30;0.30;;;7.40;99.90;;;;;;6209663;23;20048;-66
2023/12/09 05:48:50;;;;;;;1.17;0.85;;;7.40;99.90;;;;;;6183021;23;20375;-66
2023/12/09 05:51:16;;;;;;;2.08;1.42;;;7.40;99.90;;;;;;6207331;23;20483;-66
2023/12/09 05:53:41;;;;;;;0.93;0.90;;;7.30;99.90;;;;;;6210867;23;20499;-66
2023/12/09 05:56:11;;;;;;;0.45;0.45;;;7.30;99.90;;;;;;6183440;23;20067;-66
2023/12/09 05:58:39;;;;;;;0.47;0.47;;;7.30;99.90;;;;;;6210128;23;20062;-66
2023/12/09 06:01:05;;;;;;;0.90;0.85;;;7.30;99.90;;;;;;6209006;23;20017;-66
2023/12/09 06:03:31;;;;;;;3.42;1.38;;;7.30;99.90;;;;;;6183415;23;20009;-66
2023/12/09 06:05:57;;;;;;;0.98;0.63;;;7.30;99.90;;;;;;6180782;23;20510;-66
2023/12/09 06:08:23;;;;;;;0.90;0.90;;;7.30;99.90;;;;;;6182598;23;20020;-66
2023/12/09 06:10:49;;;;;;;1.75;1.10;;;7.30;99.90;;;;;;6209683;23;20008;-66
2023/12/09 06:13:15;;;;;;;2.08;1.00;;;7.30;99.90;;;;;;6211996;23;20009;-66
2023/12/09 06:15:41;;;;;;;0.90;0.47;;;7.30;99.90;;;;;;6179132;23;20026;-67
2023/12/09 06:18:06;;;;;;;0.70;0.40;;;7.30;99.90;;;;;;6209767;23;20009;-66
2023/12/09 06:20:32;;;;;;;1.33;0.70;;;7.30;99.90;;;;;;6209054;23;20017;-67
2023/12/09 06:22:57;;;;;;;2.00;1.23;;;7.20;99.90;;;;;;6182376;23;20084;-66
2023/12/09 06:25:23;;;;;;;3.75;1.05;;;7.20;99.90;;;;;;6182661;23;20047;-66
2023/12/09 06:27:48;;;;;;;0.98;0.98;;;7.20;99.90;;;;;;6182205;23;20517;-67
2023/12/09 06:30:14;;;;;;;0.75;0.75;;;7.20;99.90;;;;;;6183518;23;20100;-66
2023/12/09 06:32:41;;;;;;;1.75;0.90;;;7.20;99.90;;;;;;6181070;23;20467;-66
2023/12/09 06:35:07;;;;;;;0.68;0.55;;;7.20;99.90;;;;;;6182951;23;20471;-66
2023/12/09 06:37:33;;;;;;;1.25;1.15;;;7.20;99.90;;;;;;6183909;23;20013;-66
2023/12/09 06:39:59;;;;;;;0.63;0.63;;;7.20;99.90;;;;;;6178942;23;20355;-66
2023/12/09 06:42:24;;;;;;;1.13;1.05;;;7.30;99.90;;;;;;6183371;23;20039;-66
2023/12/09 06:44:50;;;;;;;0.80;0.80;;;7.20;99.90;;;;;;6182455;23;20365;-66
2023/12/09 06:47:16;;;;;;;0.50;0.40;;;7.20;99.90;;;;;;6182988;23;20024;-66
2023/12/09 06:49:41;;;;;;;1.67;0.55;;;7.20;99.90;;;;;;6182166;23;20494;-66
2023/12/09 06:52:07;;;;;;;0.20;0.20;;;7.20;99.90;;;;;;6183263;23;20016;-67
2023/12/09 06:54:32;;;;;;;5.82;0.55;;;7.20;99.90;;;;;;6206764;23;20091;-66
2023/12/09 06:56:58;;;;;;;1.08;0.40;;;7.20;99.90;;;;;;6182389;23;20025;-66
2023/12/09 06:59:25;;;;;;;0.30;0.30;;;7.20;99.90;;;;;;6181120;23;20024;-66
2023/12/09 07:01:51;;;;;;;1.10;0.93;;;7.20;99.90;;;;;;6183681;23;20083;-67
2023/12/09 07:04:16;;;;;;;1.45;1.10;;;7.20;99.90;;;;;;6178572;23;20624;-66
2023/12/09 07:06:42;;;;;;;2.15;0.77;;;7.20;99.90;;;;;;6182589;23;20021;-66
2023/12/09 07:09:08;;;;;;;0.50;0.50;;;7.10;99.90;;;;;;6182159;23;20111;-66
2023/12/09 07:11:34;;;;;;;0.68;0.52;;;7.20;99.90;;;;;;6179946;23;20070;-66
2023/12/09 07:13:59;;;;;;;2.22;0.47;;;7.20;99.90;;;;;;6208471;23;20287;-66
2023/12/09 07:16:25;;;;;;;0.65;0.65;;;7.20;99.90;;;;;;6181922;23;20019;-66
2023/12/09 07:18:52;;;;;;;1.95;0.90;;;7.10;99.90;;;;;;6182821;23;20016;-67
2023/12/09 07:21:18;;;;;;;0.40;0.40;;;7.20;99.90;;;;;;6181941;23;20017;-66
2023/12/09 07:23:43;;;;;;;0.52;0.52;;;7.20;99.90;;;;;;6183916;23;20025;-66
2023/12/09 07:26:09;;;;;;;0.45;0.45;;;7.10;99.90;;;;;;6178522;23;20090;-66
2023/12/09 07:28:35;;;;;;;0.75;0.63;;;7.10;99.90;;;;;;6182069;23;20467;-66
2023/12/09 07:31:01;;;;;;;1.30;0.45;;;7.10;99.90;;;;;;6182281;23;20016;-67
2023/12/09 07:33:26;;;;;;;4.38;1.23;;;7.10;99.90;;;;;;6183016;23;20097;-66
2023/12/09 07:35:52;;;;;;;1.80;1.02;;;7.10;99.90;;;;;;6181633;23;20096;-66
2023/12/09 07:38:18;;;;;;;3.85;1.35;;;7.10;99.90;;;;;;6183157;23;20017;-67
2023/12/09 07:40:44;;;;;;;2.50;0.93;;;7.10;99.90;;;;;;6210148;23;20641;-66
2023/12/09 07:43:09;;;;;;;3.05;0.68;;;7.10;99.90;;;;;;6178993;23;20044;-67
2023/12/09 07:45:35;;;;;;;0.68;0.57;;;7.10;99.90;;;;;;6181566;23;20019;-67
2023/12/09 07:48:01;;;;;;;3.17;0.40;;;7.10;99.90;;;;;;6182215;23;20483;-67
2023/12/09 07:50:27;;;;;;;1.23;0.90;;;7.10;99.90;;;;;;6207229;23;20080;-65
2023/12/09 07:52:52;;;;;;;0.63;0.60;;;7.10;99.90;;;;;;6179539;23;20110;-67
2023/12/09 07:55:18;;;;;;;0.52;0.52;;;7.10;99.90;;;;;;6181777;23;20013;-67
2023/12/09 07:57:43;;;;;;;0.50;0.50;;;7.10;99.90;;;;;;6179490;23;20008;-66
2023/12/09 08:00:09;;;;;;;1.45;0.98;;;7.10;99.90;;;;;;6209342;23;20016;-66
2023/12/09 08:02:35;;;;;;;2.40;1.10;;;7.10;99.90;;;;;;6208743;23;20031;-66
2023/12/09 08:05:01;;;;;;;0.32;0.32;;;7.10;99.90;;;;;;6181195;23;20100;-67
2023/12/09 08:07:26;;;;;;;0.73;0.22;;;7.10;99.90;;;;;;6209147;23;20024;-66
2023/12/09 08:09:52;;;;;;;0.20;0.20;;;7.10;99.90;;;;;;6182236;23;20492;-67
2023/12/09 08:12:17;;;;;;;0.57;0.57;;;7.10;99.90;;;;;;6181533;23;20091;-67
2023/12/09 08:14:43;;;;;;;0.90;0.75;;;7.10;99.90;;;;;;6178026;23;20017;-66
2023/12/09 08:17:08;;;;;;;1.25;0.75;;;7.10;99.90;;;;;;6182024;23;20325;-67
2023/12/09 08:19:34;;;;;;;2.22;2.03;;;7.10;99.90;;;;;;6181041;23;20468;-66
2023/12/09 08:22:00;;;;;;;0.30;0.30;;;7.10;99.90;;;;;;6181188;23;20349;-66
2023/12/09 08:24:25;;;;;;;2.42;1.63;;;7.10;99.90;;;;;;6181347;23;20090;-66
2023/12/09 08:26:51;;;;;;;0.22;0.22;;;7.10;99.90;;;;;;6207971;23;20071;-66
2023/12/09 08:29:17;;;;;;;0.80;0.50;;;7.00;99.90;;;;;;6181605;23;20017;-66
2023/12/09 08:31:46;;;;;;;0.20;0.20;;;7.00;99.90;;;;;;6181316;23;20145;-66
2023/12/09 08:34:13;;;;;;;0.20;0.20;;;7.00;99.90;;;;;;6210221;23;20019;-66
2023/12/09 08:36:38;;;;;;;2.03;1.80;;;7.00;99.90;;;;;;6209480;23;20009;-67
2023/12/09 08:39:04;;;;;;;0.20;0.20;;;7.00;99.90;;;;;;6183943;23;20486;-67
2023/12/09 08:41:30;;;;;;;0.60;0.40;;;7.00;99.90;;;;;;6184760;23;20021;-66
2023/12/09 08:43:55;;;;;;;0.10;0.10;;;7.00;99.90;;;;;;6211188;23;20091;-66
2023/12/09 08:46:21;;;;;;;1.02;0.20;;;7.00;99.90;;;;;;6183458;23;20351;-67
2023/12/09 08:48:47;;;;;;;0.75;0.65;;;6.90;99.90;;;;;;6185838;23;20027;-66
2023/12/09 08:51:12;;;;;;;0.40;0.40;;;6.90;99.90;;;;;;6211425;23;20070;-66
2023/12/09 08:53:38;;;;;;;0.90;0.57;;;6.90;99.90;;;;;;6212275;23;20009;-66
2023/12/09 08:56:04;;;;;;;0.43;0.43;;;7.00;99.90;;;;;;6183928;23;20025;-66
2023/12/09 08:58:29;;;;;;;1.15;1.00;;;6.90;99.90;;;;;;6184164;23;20020;-66
2023/12/09 09:00:55;;;;;;;0.57;0.40;;;7.00;99.90;;;;;;6183179;23;20083;-66
2023/12/09 09:03:21;;;;;;;0.20;0.20;;;7.00;99.90;;;;;;6185232;23;20059;-66
2023/12/09 09:05:46;;;;;;;1.02;0.82;;;7.00;99.90;;;;;;6184317;23;20031;-66
2023/12/09 09:08:12;;;;;;;0.75;0.75;;;7.00;99.90;;;;;;6182941;23;20013;-66
2023/12/09 09:10:37;;;;;;;0.22;0.22;;;7.10;99.90;;;;;;6184325;23;20015;-66
2023/12/09 09:13:03;;;;;;;0.22;0.22;;;7.10;99.90;;;;;;6184591;23;20352;-66
2023/12/09 09:15:29;;;;;;;0.80;0.65;;;7.10;99.90;;;;;;6183879;23;20490;-67
2023/12/09 09:17:54;;;;;;;0.20;0.20;;;7.20;99.90;;;;;;6158698;23;20313;-66
2023/12/09 09:20:20;;;;;;;0.63;0.63;;;7.20;99.90;;;;;;6184605;23;20071;-66
2023/12/09 09:22:47;;;;;;;0.20;0.17;;;7.20;99.90;;;;;;6182512;23;20431;-66
2023/12/09 09:25:12;;;;;;;0.30;0.30;;;7.30;99.90;;;;;;6180969;23;20087;-66
2023/12/09 09:27:38;;;;;;;0.20;0.20;;;7.30;99.90;;;;;;6209231;23;20048;-67
2023/12/09 09:30:04;;;;;;;0.20;0.20;;;7.30;99.90;;;;;;6211161;23;20021;-66
2023/12/09 09:32:31;;;;;;;1.75;0.38;;;7.30;99.90;;;;;;6182708;23;20016;-66
2023/12/09 09:34:56;;;;;;;0.20;0.20;;;7.30;99.90;;;;;;6210401;23;20071;-67
2023/12/09 09:37:23;;;;;;;4.57;0.40;;;7.30;99.90;;;;;;6211166;23;20451;-66
2023/12/09 09:39:48;;;;;;;0.30;0.25;;;7.30;99.90;;;;;;6184753;23;20020;-64
2023/12/09 09:42:20;;;;;;;0.60;0.60;;;7.40;99.90;;;;;;6211465;23;20063;-65
2023/12/09 09:45:14;;;;;;;0.10;0.10;;;7.40;99.90;;;;;;6210114;23;20127;-65
2023/12/09 09:47:42;;;;;;;0.10;0.10;;;7.40;99.90;;;;;;6185234;23;20025;-65
2023/12/09 09:50:08;;;;;;;0.43;0.30;;;7.50;99.90;;;;;;6181377;23;20020;-65
2023/12/09 09:52:40;;;;;;;0.45;0.28;;;7.50;99.90;;;;;;6210651;23;20017;-65
2023/12/09 09:55:07;;;;;;;1.35;0.38;;;7.60;99.90;;;;;;6210175;23;20231;-64
2023/12/09 09:57:36;;;;;;;0.17;0.17;;;7.60;99.90;;;;;;6184591;23;20021;-65
2023/12/09 10:00:12;;;;;;;0.25;0.20;;;7.60;99.90;;;;;;6210490;23;20017;-65
2023/12/09 10:02:45;;;;;;;0.77;0.77;;;7.60;99.90;;;;;;6183160;23;20024;-64
2023/12/09 10:05:12;;;;;;;0.10;0.10;;;7.60;99.90;;;;;;6209611;23;20013;-65
2023/12/09 10:07:39;;;;;;;0.30;0.30;;;7.60;99.90;;;;;;6183203;23;20020;-64
2023/12/09 10:10:06;;;;;;;0.15;0.15;;;7.60;99.90;;;;;;6183913;23;20100;-65
2023/12/09 10:12:32;;;;;;;0.55;0.55;;;7.70;99.90;;;;;;6208568;23;20454;-65
2023/12/09 10:15:00;;;;;;;0.38;0.38;;;7.70;99.90;;;;;;6183202;23;20013;-64
2023/12/09 10:17:27;;;;;;;0.30;0.30;;;7.60;99.90;;;;;;6210624;23;20380;-72
2023/12/09 10:19:54;;;;;;;0.10;0.10;;;7.60;99.90;;;;;;6159084;23;20012;-68
2023/12/09 10:22:20;;;;;;;0.20;0.20;;;7.60;99.90;;;;;;6183984;23;20028;-70
2023/12/09 10:24:50;;;;;;;0.10;0.10;;;7.60;99.90;;;;;;6160111;23;20014;-70
2023/12/09 10:27:20;;;;;;;0.20;0.20;;;7.50;99.90;;;;;;6211119;23;20046;-71
2023/12/09 10:29:45;;;;;;;0.15;0.15;;;7.50;99.90;;;;;;6211741;23;20134;-72
2023/12/09 10:32:12;;;;;;;0.93;0.47;;;7.50;99.90;;;;;;6211483;23;20005;-70
2023/12/09 10:34:39;;;;;;;0.20;0.20;;;7.50;99.90;;;;;;6210609;23;20094;-71
2023/12/09 10:37:08;;;;;;;0.15;0.15;;;7.40;99.90;;;;;;6182869;23;20084;-71
2023/12/09 10:39:34;;;;;;;0.10;0.10;;;7.40;99.90;;;;;;6210692;23;20384;-71
2023/12/09 10:41:59;;;;;;;0.25;0.25;;;7.40;99.90;;;;;;6182173;23;20023;-71
2023/12/09 10:44:25;;;;;;;1.02;0.40;;;7.40;99.90;;;;;;6183116;23;20016;-71
2023/12/09 10:46:50;;;;;;;0.10;0.10;;;7.40;99.90;;;;;;6161156;23;20482;-69
2023/12/09 10:49:16;;;;;;;0.15;0.15;;;7.50;99.90;;;;;;6182682;23;20017;-70
2023/12/09 10:51:42;;;;;;;0.70;0.65;;;7.50;99.90;;;;;;6185190;23;20448;-69
2023/12/09 10:54:07;;;;;;;1.75;0.35;;;7.50;99.90;;;;;;6182002;23;20009;-69
2023/12/09 10:56:33;;;;;;;0.10;0.10;;;7.50;99.90;;;;;;6185132;23;20080;-69
2023/12/09 10:59:00;;;;;;;0.63;0.20;;;7.60;99.90;;;;;;6210891;23;20074;-70
2023/12/09 11:01:28;;;;;;;0.28;0.28;;;7.60;99.90;;;;;;6182670;23;20356;-71
2023/12/09 11:03:54;;;;;;;0.10;0.10;;;7.60;99.90;;;;;;6183119;23;20373;-70
2023/12/09 11:06:20;;;;;;;0.00;0.00;;;7.60;99.90;;;;;;6183723;23;20023;-70
2023/12/09 11:08:48;;;;;;;0.40;0.40;;;7.60;99.90;;;;;;6182942;23;20024;-70
2023/12/09 11:11:15;;;;;;;0.30;0.30;;;7.60;99.90;;;;;;6183794;23;20101;-69
2023/12/09 11:13:46;;;;;;;0.10;0.10;;;7.60;99.90;;;;;;6158737;23;20017;-69
2023/12/09 11:16:12;;;;;;;0.10;0.10;;;7.60;99.90;;;;;;6208446;23;20131;-71
2023/12/09 11:18:52;;;;;;;0.43;0.43;;;7.60;99.90;;;;;;6182844;23;20083;-71
2023/12/09 11:21:20;;;;;;;0.20;0.20;;;7.60;99.90;;;;;;6183709;23;20023;-70
2023/12/09 11:23:51;;;;;;;3.80;0.40;;;7.60;99.90;;;;;;6181669;23;20012;-70
2023/12/09 11:26:19;;;;;;;0.30;0.30;;;7.60;99.90;;;;;;6183284;23;20047;-72
2023/12/09 11:29:05;;;;;;;0.55;0.20;;;7.60;99.90;;;;;;6183847;23;20028;-71
2023/12/09 11:31:44;;;;;;;5.88;0.30;;;7.60;99.90;;;;;;6183915;23;20023;-70
2023/12/09 11:34:17;;;;;;;0.40;0.40;;;7.60;99.90;;;;;;6182899;23;20051;-69
2023/12/09 11:36:44;;;;;;;0.30;0.30;;;7.60;99.90;;;;;;6209359;23;20013;-68
2023/12/09 11:39:20;;;;;;;2.83;0.15;;;7.60;99.90;;;;;;6158205;23;20756;-69
2023/12/09 11:41:47;;;;;;;0.28;0.28;;;7.60;99.90;;;;;;6210980;23;20040;-69
2023/12/09 11:44:14;;;;;;;0.20;0.20;;;7.60;99.90;;;;;;6182947;23;20040;-69
2023/12/09 11:46:40;;;;;;;0.13;0.13;;;7.60;99.90;;;;;;6182696;23;20405;-68
2023/12/09 11:49:08;;;;;;;0.35;0.35;;;7.60;99.90;;;;;;6209513;23;20016;-69
2023/12/09 11:51:34;;;;;;;0.22;0.22;;;7.60;99.90;;;;;;6183113;23;20013;-70
2023/12/09 11:54:03;;;;;;;0.17;0.17;;;7.60;99.90;;;;;;6182470;23;20019;-69
2023/12/09 11:56:29;;;;;;;0.30;0.30;;;7.60;99.90;;;;;;6183101;23;20044;-69
2023/12/09 11:58:55;;;;;;;0.35;0.35;;;7.60;99.90;;;;;;6180595;23;20049;-69
2023/12/09 12:01:22;;;;;;;0.77;0.57;;;7.60;99.90;;;;;;6183791;23;20042;-71
2023/12/09 12:03:49;;;;;;;0.20;0.20;;;7.70;99.90;;;;;;6183540;23;20020;-70
2023/12/09 12:06:16;;;;;;;0.10;0.10;;;7.70;99.90;;;;;;6180338;23;20012;-68
2023/12/09 12:08:47;;;;;;;0.05;0.05;;;7.70;99.90;;;;;;6183240;23;20407;-69
2023/12/09 12:11:17;;;;;;;0.20;0.20;;;7.70;99.90;;;;;;6183609;23;20472;-69
2023/12/09 12:13:44;;;;;;;0.10;0.10;;;7.70;99.90;;;;;;6157231;23;20289;-69
2023/12/09 12:16:10;;;;;;;3.25;0.55;;;7.80;99.90;;;;;;6182978;23;20050;-69
2023/12/09 12:18:36;;;;;;;0.10;0.10;;;7.80;99.90;;;;;;6210283;23;20012;-70
2023/12/09 12:21:03;;;;;;;0.32;0.32;;;7.80;99.90;;;;;;6209920;23;20459;-71
2023/12/09 12:23:29;;;;;;;0.10;0.10;;;7.80;99.90;;;;;;6183663;23;20217;-69
2023/12/09 12:25:58;;;;;;;0.13;0.13;;;7.90;99.90;;;;;;6184599;23;20023;-71
2023/12/09 12:28:24;;;;;;;0.20;0.20;;;7.90;99.90;;;;;;6182106;23;20013;-71
2023/12/09 12:31:00;;;;;;;0.10;0.10;;;7.90;99.90;;;;;;6185091;23;20024;-69
2023/12/09 12:33:28;;;;;;;0.20;0.20;;;7.90;99.90;;;;;;6182642;23;20761;-68
2023/12/09 12:35:55;;;;;;;0.10;0.10;;;7.90;99.90;;;;;;6211572;23;20424;-69
2023/12/09 12:38:22;;;;;;;0.20;0.20;;;8.00;99.90;;;;;;6161528;23;20497;-71
2023/12/09 12:40:48;;;;;;;0.08;0.08;;;7.90;99.90;;;;;;6181874;23;20028;-71
2023/12/09 12:43:16;;;;;;;0.22;0.10;;;7.90;99.90;;;;;;6160273;23;20013;-70
2023/12/09 12:45:45;;;;;;;1.08;0.20;;;7.90;99.90;;;;;;6209916;23;20008;-69
2023/12/09 12:48:10;;;;;;;0.73;0.40;;;7.90;99.90;;;;;;6211700;23;20039;-70
2023/12/09 12:50:36;;;;;;;0.05;0.05;;;7.90;99.90;;;;;;6209640;23;20325;-69
2023/12/09 12:53:02;;;;;;;0.13;0.10;;;8.00;99.90;;;;;;6159696;23;20328;-70